AMCO2: Cimarron River nr Ames 4SW

Data processed at Fri Jan 05 2018 23:53


All information presented herein is the property of the government of the United States of America and may be revised or deleted at any time without prior notice.
Dissemination of this information without the expressed written consent of the Public Affairs Office, Tulsa District U.S. Army Corps of Engineers is strictly prohibited.
These data are gathered electronically and, as presented, have not undergone any form of quality control. These data are not guaranteed to be valid or correct.
Go to home page.
Go to station list.

Upstream stations:

Downstream station:
Previous Day
Next Day
Current Day
    
SHEF ID:       AMCO2     Cimarron River nr Ames 4SW
STATION TYPE:  

               PRECIP     STAGE  RIV-FLOW   VOLTAGE
                   in        ft       cfs      volt
              Ccp-Rev   Ccp-Rev   Ccp-Rev   Ccp-Rev
(US/Central)
01/03 00:00      0.00      3.54       133     12.70
01/03 01:00      0.00      3.52       126     12.70
01/03 02:00      0.00      3.50       119     12.60
01/03 03:00      0.00      3.48       113     12.60
01/03 04:00      0.00      3.47       109     12.50
01/03 05:00      0.00      3.45       103     12.50
01/03 06:00      0.00      3.45       103     12.40
01/03 07:00      0.00     28.87      ----     12.40
01/03 08:00      0.00      3.44        99     12.90
01/03 09:00      0.00      3.45       103     13.60
01/03 10:00      0.00      3.45       103     13.50
01/03 11:00      0.00      3.45       103     13.50
01/03 12:00      0.00      3.47       109     13.70
01/03 13:00      0.00      3.49       116     14.20
01/03 14:00      0.00      3.51       123     14.00
01/03 15:00      0.00      3.55       136     13.50
01/03 16:00      0.00      3.59       150     13.70
01/03 17:00      0.00      3.64       166     13.10
01/03 18:00      0.00      3.67       176     13.00
01/03 19:00      0.00      3.69       183     12.90
01/03 20:00      0.00      3.68       180     12.80
01/03 21:00      0.00      3.67       176     12.80
01/03 22:00      0.00      3.64       166     12.80
01/03 23:00      0.00      3.62       160     12.80